Portada
METAR-TAF:

METAR-TAF

Aeropuertos :

Tabuk, Arabia Saudita

latitud: 28-22N, longitud: 036-36E, altitud: 778 m

Observación

El informe se hizo hace 22 minutos, a las 15:00 UTC
Viento 6 kt del oeste-noroeste
Temperatura 29°C
Humedad 15%
Presión 1009 hPa
Visibilidad 10 km o más
Escasas nubes a una altura de 4000 ft

METAR: OETB 141500Z 30006KT 9999 FEW040 29/00 Q1009 NOSIG

Hora: 18:22 (15:22 UTC)

Pronóstico

El informe se hizo hace 4 horas y 22 minutos, a las 11:00 UTC
Pronóstico válido del 14 a las 12 UTC al 15 a las 18 UTC
Viento 10 kt del norte
Visibilidad 10 km o más
sin nubes por debajo de 1500 m y sin presencia de cumulonimbus.

TAF: OETB 141100Z 1412/1518 36010KT CAVOK

Observaciones y pronósticos meteorológicos de más de 4000 aeropuertos (mensajes METAR y TAF).

Los puntos amarillos y rojos representan las estaciones disponibles.

Ponga el ratón en el punto deseado para ver el nombre de la estación.

Haga clic para ver las observaciones y los pronósticos meteorológicos.

Para cambiar el mapa : haga clic en los botones verdes con una cruz de color negro para hacer un zoom, en el botón verde con un guión para alejar o en las flechas verdes para mapas adyacentes.


METAR-TAF: